Time;durP1;ratioP1;P1;durP2;ratioP2;P2;SDS_P1;SDS_P2;PMS_P1;PMS_P2;Temp;Humidity;BMP_temperature;BMP_pressure;BME280_temperature;BME280_humidity;BME280_pressure;Samples;Min_cycle;Max_cycle;Signal;HPM_P1;HPM_P2
2020/12/10 00:01:24;;;;;;;43.20;27.90;;;2.30;99.90;;;;;;6215903;23;20221;-69
2020/12/10 00:03:50;;;;;;;43.57;27.80;;;2.20;99.90;;;;;;6215820;23;20158;-70
2020/12/10 00:06:18;;;;;;;42.27;26.83;;;2.30;99.90;;;;;;6216063;23;20681;-69
2020/12/10 00:08:43;;;;;;;40.27;26.97;;;2.30;99.90;;;;;;6215969;23;20474;-69
2020/12/10 00:11:09;;;;;;;44.23;27.33;;;2.40;99.90;;;;;;6215585;23;20426;-75
2020/12/10 00:13:34;;;;;;;44.07;25.77;;;2.30;99.90;;;;;;6215881;23;20148;-75
2020/12/10 00:16:00;;;;;;;42.33;28.20;;;2.30;99.90;;;;;;6216119;23;20522;-75
2020/12/10 00:18:25;;;;;;;43.63;27.07;;;2.40;99.90;;;;;;6189333;23;20156;-70
2020/12/10 00:20:51;;;;;;;47.40;28.93;;;2.40;99.90;;;;;;6215962;23;20484;-70
2020/12/10 00:23:16;;;;;;;41.50;26.13;;;2.40;99.90;;;;;;6215990;23;20157;-70
2020/12/10 00:25:42;;;;;;;46.73;26.37;;;2.40;99.90;;;;;;6211024;23;20534;-70
2020/12/10 00:28:08;;;;;;;46.73;28.47;;;2.40;99.90;;;;;;6215802;23;20144;-70
2020/12/10 00:30:33;;;;;;;45.57;27.30;;;2.40;99.90;;;;;;6215670;23;20511;-71
2020/12/10 00:32:59;;;;;;;50.90;28.10;;;2.40;99.90;;;;;;6215952;23;20157;-70
2020/12/10 00:35:24;;;;;;;45.90;28.53;;;2.40;99.90;;;;;;6215584;23;20469;-70
2020/12/10 00:37:50;;;;;;;49.60;29.67;;;2.40;99.90;;;;;;6215548;23;20476;-70
2020/12/10 00:40:15;;;;;;;41.90;28.13;;;2.40;99.90;;;;;;6225601;23;20471;-70
2020/12/10 00:42:41;;;;;;;48.23;29.70;;;2.40;99.90;;;;;;6215644;23;20568;-70
2020/12/10 00:45:06;;;;;;;41.23;27.43;;;2.40;99.90;;;;;;6213748;23;20238;-70
2020/12/10 00:47:32;;;;;;;45.77;28.17;;;2.40;99.90;;;;;;6215720;23;20229;-70
2020/12/10 00:49:58;;;;;;;44.97;27.90;;;2.50;99.90;;;;;;6225364;23;20271;-70
2020/12/10 00:52:25;;;;;;;44.17;26.73;;;2.50;99.90;;;;;;6215342;23;20214;-70
2020/12/10 00:54:51;;;;;;;47.23;27.00;;;2.50;99.90;;;;;;6215821;23;20541;-70
2020/12/10 00:57:16;;;;;;;40.53;25.83;;;2.50;99.90;;;;;;6215101;23;20420;-70
2020/12/10 00:59:42;;;;;;;38.57;26.07;;;2.50;99.90;;;;;;6215496;23;20149;-71
2020/12/10 01:02:07;;;;;;;51.17;27.40;;;2.60;99.90;;;;;;6225158;23;20152;-71
2020/12/10 01:04:34;;;;;;;41.00;24.90;;;2.60;99.90;;;;;;6215051;23;20161;-69
2020/12/10 01:06:59;;;;;;;40.07;26.67;;;2.60;99.90;;;;;;6215557;23;20175;-69
2020/12/10 01:09:25;;;;;;;42.27;27.77;;;2.60;99.90;;;;;;6213068;23;20694;-69
2020/12/10 01:11:51;;;;;;;47.50;27.63;;;2.60;99.90;;;;;;6225106;23;20664;-69
2020/12/10 01:14:18;;;;;;;37.07;25.20;;;2.60;99.90;;;;;;6215505;23;20151;-70
2020/12/10 01:16:44;;;;;;;39.80;25.27;;;2.60;99.90;;;;;;6218938;23;20158;-69
2020/12/10 01:19:09;;;;;;;47.17;27.50;;;2.60;99.90;;;;;;6215381;23;20390;-69
2020/12/10 01:21:35;;;;;;;37.40;25.00;;;2.60;99.90;;;;;;6215219;23;20413;-69
2020/12/10 01:24:03;;;;;;;39.47;26.47;;;2.60;99.90;;;;;;6215252;23;20204;-71
2020/12/10 01:26:31;;;;;;;42.73;27.33;;;2.60;99.90;;;;;;6215246;23;20412;-69
2020/12/10 01:28:57;;;;;;;42.00;26.50;;;2.60;99.90;;;;;;6215337;23;20482;-69
2020/12/10 01:31:23;;;;;;;38.43;24.33;;;2.60;99.90;;;;;;6214641;23;20463;-69
2020/12/10 01:33:48;;;;;;;41.73;26.13;;;2.60;99.90;;;;;;6215142;23;20477;-69
2020/12/10 01:36:21;;;;;;;46.93;28.17;;;2.60;99.90;;;;;;6215317;23;20200;-70
2020/12/10 01:38:48;;;;;;;42.23;28.57;;;2.60;99.90;;;;;;6215210;23;20150;-69
2020/12/10 01:41:14;;;;;;;45.00;27.80;;;2.60;99.90;;;;;;6215176;23;20397;-70
2020/12/10 01:43:39;;;;;;;40.73;24.87;;;2.70;99.90;;;;;;6214767;23;20420;-70
2020/12/10 01:46:05;;;;;;;40.47;24.50;;;2.70;99.90;;;;;;6214781;23;20441;-70
2020/12/10 01:48:33;;;;;;;40.00;25.87;;;2.70;99.90;;;;;;6214474;23;20225;-70
2020/12/10 01:50:58;;;;;;;42.10;26.37;;;2.70;99.90;;;;;;6215887;23;20186;-69
2020/12/10 01:53:24;;;;;;;41.07;27.70;;;2.70;99.90;;;;;;6215691;23;20710;-70
2020/12/10 01:55:50;;;;;;;38.60;24.10;;;2.70;99.90;;;;;;6215718;23;20161;-73
2020/12/10 01:58:15;;;;;;;43.83;25.63;;;2.70;99.90;;;;;;6225733;23;20174;-73
2020/12/10 02:00:41;;;;;;;36.67;26.13;;;2.70;99.90;;;;;;6215981;23;20161;-73
2020/12/10 02:03:06;;;;;;;39.33;24.73;;;2.70;99.90;;;;;;6225865;23;20201;-73
2020/12/10 02:05:40;;;;;;;45.20;26.83;;;2.70;99.90;;;;;;6225771;23;20226;-73
2020/12/10 02:08:06;;;;;;;39.73;25.97;;;2.70;99.90;;;;;;6225765;23;20508;-73
2020/12/10 02:10:31;;;;;;;49.63;26.40;;;2.70;99.90;;;;;;6215414;23;20425;-73
2020/12/10 02:12:57;;;;;;;42.80;26.43;;;2.70;99.90;;;;;;6215459;23;20152;-73
2020/12/10 02:15:22;;;;;;;43.23;27.80;;;2.70;99.90;;;;;;6216063;23;20158;-69
2020/12/10 02:17:48;;;;;;;39.63;25.43;;;2.80;99.90;;;;;;6215954;23;20150;-69
2020/12/10 02:20:13;;;;;;;36.53;23.97;;;2.80;99.90;;;;;;6215943;23;20518;-69
2020/12/10 02:22:39;;;;;;;51.77;26.13;;;2.80;99.90;;;;;;6215989;23;20158;-69
2020/12/10 02:25:05;;;;;;;35.87;21.80;;;2.70;99.90;;;;;;6215441;23;20227;-69
2020/12/10 02:27:30;;;;;;;43.27;22.27;;;2.70;99.90;;;;;;6217479;23;20494;-70
2020/12/10 02:29:56;;;;;;;38.47;23.30;;;2.80;99.90;;;;;;6218346;23;20507;-70
2020/12/10 02:32:22;;;;;;;39.83;22.20;;;2.80;99.90;;;;;;6217770;23;20586;-70
2020/12/10 02:34:47;;;;;;;49.30;24.40;;;2.80;99.90;;;;;;6217732;23;20205;-70
2020/12/10 02:37:13;;;;;;;39.83;24.20;;;2.80;99.90;;;;;;6217913;23;20151;-70
2020/12/10 02:39:38;;;;;;;45.43;24.77;;;2.80;99.90;;;;;;6218024;23;20165;-70
2020/12/10 02:42:04;;;;;;;46.80;27.37;;;2.80;99.90;;;;;;6217751;23;20151;-70
2020/12/10 02:44:29;;;;;;;47.40;24.63;;;2.90;99.90;;;;;;6217972;23;20163;-73
2020/12/10 02:46:55;;;;;;;39.37;23.03;;;2.80;99.90;;;;;;6218104;23;20164;-72
2020/12/10 02:49:20;;;;;;;40.33;23.20;;;2.80;99.90;;;;;;6217944;23;20237;-68
2020/12/10 02:51:46;;;;;;;33.30;20.20;;;2.70;99.90;;;;;;6217895;23;20194;-69
2020/12/10 02:54:12;;;;;;;35.20;20.30;;;2.70;99.90;;;;;;6217602;23;20154;-68
2020/12/10 02:56:37;;;;;;;39.50;22.07;;;2.70;99.90;;;;;;6217088;23;20166;-69
2020/12/10 02:59:03;;;;;;;35.77;22.10;;;2.60;99.90;;;;;;6217491;23;20151;-68
2020/12/10 03:01:28;;;;;;;41.97;23.73;;;2.70;99.90;;;;;;6217283;23;20143;-68
2020/12/10 03:03:54;;;;;;;36.30;22.47;;;2.70;99.90;;;;;;6217146;23;20142;-68
2020/12/10 03:06:19;;;;;;;37.90;22.90;;;2.70;99.90;;;;;;6217565;23;20160;-69
2020/12/10 03:08:45;;;;;;;43.53;23.00;;;2.70;99.90;;;;;;6217214;23;20207;-69
2020/12/10 03:11:10;;;;;;;37.60;20.87;;;2.70;99.90;;;;;;6217571;23;20195;-69
2020/12/10 03:13:36;;;;;;;38.77;21.70;;;2.70;99.90;;;;;;6217647;23;20150;-69
2020/12/10 03:16:02;;;;;;;37.90;21.83;;;2.70;99.90;;;;;;6217612;23;20485;-69
2020/12/10 03:18:27;;;;;;;35.10;20.27;;;2.70;99.90;;;;;;6217720;23;20204;-68
2020/12/10 03:20:54;;;;;;;37.20;21.13;;;2.70;99.90;;;;;;6217524;23;20161;-68
2020/12/10 03:23:20;;;;;;;40.10;20.63;;;2.70;99.90;;;;;;6216719;23;20153;-71
2020/12/10 03:25:45;;;;;;;41.87;22.00;;;2.70;99.90;;;;;;6216853;23;20823;-71
2020/12/10 03:28:11;;;;;;;43.13;22.53;;;2.70;99.90;;;;;;6216783;23;20378;-72
2020/12/10 03:30:36;;;;;;;38.70;21.30;;;2.80;99.90;;;;;;6226959;23;20555;-71
2020/12/10 03:33:02;;;;;;;36.93;21.40;;;2.80;99.90;;;;;;6216619;23;20157;-71
2020/12/10 03:35:28;;;;;;;34.13;18.50;;;2.70;99.90;;;;;;6226981;23;20182;-71
2020/12/10 03:37:53;;;;;;;35.93;19.73;;;2.70;99.90;;;;;;6216754;23;20155;-71
2020/12/10 03:40:19;;;;;;;34.67;19.60;;;2.70;99.90;;;;;;6216951;23;20584;-71
2020/12/10 03:42:45;;;;;;;40.37;20.70;;;2.70;99.90;;;;;;6190127;23;20464;-70
2020/12/10 03:45:10;;;;;;;35.33;19.77;;;2.70;99.90;;;;;;6216715;23;20155;-71
2020/12/10 03:47:36;;;;;;;39.73;22.47;;;2.70;99.90;;;;;;6216867;23;20206;-71
2020/12/10 03:50:02;;;;;;;39.23;20.40;;;2.60;99.90;;;;;;6217067;23;20194;-70
2020/12/10 03:52:28;;;;;;;37.43;21.77;;;2.60;99.90;;;;;;6220147;23;20530;-70
2020/12/10 03:54:54;;;;;;;38.40;21.03;;;2.60;99.90;;;;;;6216386;23;20377;-70
2020/12/10 03:57:19;;;;;;;39.80;22.27;;;2.60;99.90;;;;;;6214849;23;20418;-72
2020/12/10 03:59:45;;;;;;;36.23;20.93;;;2.60;99.90;;;;;;6225596;23;20150;-72
2020/12/10 04:02:10;;;;;;;40.53;20.60;;;2.60;99.90;;;;;;6217050;23;20157;-72
2020/12/10 04:04:36;;;;;;;39.63;20.60;;;2.60;99.90;;;;;;6216775;23;20153;-71
2020/12/10 04:07:01;;;;;;;36.93;20.67;;;2.50;99.90;;;;;;6190215;23;20166;-72
2020/12/10 04:09:27;;;;;;;37.60;21.00;;;2.60;99.90;;;;;;6217066;23;20147;-76
2020/12/10 04:11:52;;;;;;;42.40;21.80;;;2.60;99.90;;;;;;6216894;23;20194;-76
2020/12/10 04:14:18;;;;;;;35.43;19.50;;;2.50;99.90;;;;;;6226835;23;20209;-76
2020/12/10 04:16:44;;;;;;;40.03;21.57;;;2.50;99.90;;;;;;6217093;23;20238;-75
2020/12/10 04:19:09;;;;;;;37.07;20.07;;;2.50;99.90;;;;;;6216675;23;20606;-75
2020/12/10 04:21:35;;;;;;;41.93;21.67;;;2.40;99.90;;;;;;6216726;23;20157;-75
2020/12/10 04:24:00;;;;;;;42.63;22.87;;;2.40;99.90;;;;;;6216785;23;20226;-74
2020/12/10 04:26:26;;;;;;;41.27;22.07;;;2.40;99.90;;;;;;6217068;23;20190;-75
2020/12/10 04:28:51;;;;;;;37.80;20.60;;;2.40;99.90;;;;;;6226694;23;20158;-69
2020/12/10 06:30:20;;;;;;;34.60;19.75;;;2.10;99.90;;;;;;6218611;22;20503;31
2020/12/10 06:32:50;;;;;;;43.87;21.07;;;2.10;99.90;;;;;;6214401;23;20410;-70
2020/12/10 06:38:54;;;;;;;34.53;19.33;;;2.20;99.90;;;;;;6256138;23;20399;-67
2020/12/10 06:41:20;;;;;;;39.70;19.37;;;2.20;99.90;;;;;;6246195;23;20486;-66
2020/12/10 06:43:46;;;;;;;33.40;20.53;;;2.20;99.90;;;;;;6246087;23;20867;-67
2020/12/10 06:46:11;;;;;;;37.57;19.57;;;2.20;99.90;;;;;;6246543;23;20174;-67
2020/12/10 06:48:48;;;;;;;38.40;18.93;;;2.20;99.90;;;;;;6246544;23;20704;-67
2020/12/10 06:51:21;;;;;;;39.90;18.30;;;2.20;99.90;;;;;;6246143;23;20236;-67
2020/12/10 06:54:02;;;;;;;35.67;19.20;;;2.10;99.90;;;;;;6246582;23;20377;-69
2020/12/10 06:56:31;;;;;;;37.63;18.27;;;2.10;99.90;;;;;;6246489;23;20472;-69
2020/12/10 06:59:02;;;;;;;37.90;20.20;;;2.10;99.90;;;;;;6246110;23;20861;-69
2020/12/10 07:01:30;;;;;;;39.15;23.15;;;2.10;99.90;;;;;;6244949;23;20388;-69
2020/12/10 07:07:25;;;;;;;36.70;19.70;;;2.20;99.90;;;;;;6256118;23;20770;-70
2020/12/10 07:09:54;;;;;;;41.17;20.30;;;2.20;99.90;;;;;;6246153;23;20368;-71
2020/12/10 07:12:20;;;;;;;37.97;19.10;;;2.20;99.90;;;;;;6245911;23;20486;-70
2020/12/10 07:14:46;;;;;;;38.77;21.60;;;2.20;99.90;;;;;;6248605;23;20377;-69
2020/12/10 07:17:12;;;;;;;34.70;20.27;;;2.20;99.90;;;;;;6248083;23;20410;-70
2020/12/10 07:19:37;;;;;;;38.60;19.93;;;2.20;99.90;;;;;;6248179;23;20165;-69
2020/12/10 07:22:03;;;;;;;36.60;18.87;;;2.10;99.90;;;;;;6248085;23;20169;-69
2020/12/10 07:24:29;;;;;;;33.00;17.60;;;2.10;99.90;;;;;;6257908;23;20202;-69
2020/12/10 07:26:54;;;;;;;34.10;19.73;;;2.10;99.90;;;;;;6247722;23;20208;-69
2020/12/10 07:29:20;;;;;;;43.30;20.90;;;2.10;99.90;;;;;;6247631;23;20154;-69
2020/12/10 07:31:45;;;;;;;41.83;19.50;;;2.10;99.90;;;;;;6247971;23;20189;-70
2020/12/10 07:34:11;;;;;;;36.73;17.77;;;2.10;99.90;;;;;;6247684;23;20197;-70
2020/12/10 07:36:49;;;;;;;37.23;19.43;;;2.10;99.90;;;;;;6247937;23;20234;-70
2020/12/10 07:39:29;;;;;;;36.30;20.13;;;2.10;99.90;;;;;;6247516;23;20381;-70
2020/12/10 07:41:55;;;;;;;31.67;17.70;;;2.10;99.90;;;;;;6247883;23;20392;-69
2020/12/10 07:44:31;;;;;;;37.47;19.87;;;2.10;99.90;;;;;;6247855;23;20381;-70
2020/12/10 07:46:58;;;;;;;34.73;18.00;;;2.10;99.90;;;;;;6247842;23;20480;-69
2020/12/10 07:49:32;;;;;;;34.53;19.47;;;2.10;99.90;;;;;;6247388;23;20898;-69
2020/12/10 07:52:09;;;;;;;31.10;18.47;;;2.10;99.90;;;;;;6247285;23;20440;-69
2020/12/10 07:54:48;;;;;;;41.93;20.40;;;2.20;99.90;;;;;;6247804;23;20384;-69
2020/12/10 07:57:35;;;;;;;35.83;18.67;;;2.20;99.90;;;;;;6247597;23;20391;-69
2020/12/10 08:00:05;;;;;;;40.40;18.07;;;2.10;99.90;;;;;;6247347;23;20455;-69
2020/12/10 08:03:00;;;;;;;35.50;17.90;;;2.20;99.90;;;;;;6247696;23;20394;-69
2020/12/10 08:05:26;;;;;;;40.93;19.07;;;2.30;99.90;;;;;;6247552;23;20375;-71
2020/12/10 08:07:53;;;;;;;38.93;18.40;;;2.50;99.90;;;;;;6247254;23;20391;-71
2020/12/10 08:10:28;;;;;;;30.30;16.80;;;2.60;99.90;;;;;;6247430;23;20426;-70
2020/12/10 08:13:17;;;;;;;33.90;17.77;;;2.60;99.90;;;;;;6247668;23;20765;-69
2020/12/10 08:19:31;;;;;;;28.47;16.90;;;2.60;99.90;;;;;;6257539;23;20381;-69
2020/12/10 08:21:57;;;;;;;30.63;17.83;;;2.60;99.90;;;;;;6240628;23;20405;-69
2020/12/10 08:27:45;;;;;;;32.77;18.17;;;2.60;99.90;;;;;;6257414;23;20750;-69
2020/12/10 08:33:36;;;;;;;34.33;19.57;;;2.60;99.90;;;;;;6257089;22;20647;-68
2020/12/10 08:39:31;;;;;;;36.70;19.90;;;2.70;99.90;;;;;;6257359;23;20451;-68
2020/12/10 08:41:57;;;;;;;40.60;21.60;;;2.70;99.90;;;;;;6247321;23;20386;-68
2020/12/10 08:44:22;;;;;;;38.17;20.13;;;2.70;99.90;;;;;;6246871;23;20865;-68
2020/12/10 08:50:25;;;;;;;38.77;23.30;;;2.70;99.90;;;;;;6257118;23;20244;-68
2020/12/10 08:53:06;;;;;;;42.57;23.47;;;2.80;99.90;;;;;;6247190;23;20377;-68
2020/12/10 08:55:44;;;;;;;37.63;19.03;;;2.80;99.90;;;;;;6247094;23;20446;-68
2020/12/10 08:58:14;;;;;;;41.33;23.03;;;2.80;99.90;;;;;;6247067;23;20701;-69
2020/12/10 09:00:40;;;;;;;41.60;23.27;;;2.90;99.90;;;;;;6230254;23;20398;-68
2020/12/10 09:06:35;;;;;;;36.87;19.07;;;3.00;99.90;;;;;;6256864;23;20153;-68
2020/12/10 09:09:01;;;;;;;43.30;21.40;;;3.00;99.90;;;;;;6247014;23;20404;-69
2020/12/10 09:14:49;;;;;;;35.30;18.97;;;3.00;99.90;;;;;;6256901;23;20431;-69
2020/12/10 09:20:37;;;;;;;44.63;20.90;;;3.20;99.90;;;;;;6256856;23;20143;-71
2020/12/10 09:26:25;;;;;;;50.60;25.23;;;3.80;99.90;;;;;;6256730;23;20474;-70
2020/12/10 09:28:50;;;;;;;44.23;23.90;;;4.10;99.90;;;;;;6246494;23;20375;-70
2020/12/10 09:31:16;;;;;;;37.60;22.07;;;4.20;99.90;;;;;;6246748;23;20439;-70
2020/12/10 09:33:43;;;;;;;39.70;21.00;;;4.50;99.90;;;;;;6246569;23;20424;-70
2020/12/10 09:36:08;;;;;;;37.90;20.90;;;4.60;99.90;;;;;;6246493;23;20151;-70
2020/12/10 09:41:56;;;;;;;35.60;20.03;;;4.90;99.90;;;;;;6257067;23;20161;-70
2020/12/10 09:44:21;;;;;;;36.63;19.92;;;5.10;99.90;;;;;;6245684;23;20396;-70
2020/12/10 09:46:47;;;;;;;26.33;17.60;;;5.00;99.90;;;;;;6246766;23;20712;-71
2020/12/10 09:52:39;;;;;;;34.43;19.53;;;4.70;99.90;;;;;;6256563;23;20192;-71
2020/12/10 09:55:26;;;;;;;36.17;16.60;;;4.60;99.90;;;;;;6246519;23;20433;-71
2020/12/10 09:57:52;;;;;;;26.73;15.73;;;4.50;99.90;;;;;;6246098;23;20382;-70
2020/12/10 10:03:39;;;;;;;28.60;16.50;;;4.40;99.90;;;;;;6256771;23;20148;-71
2020/12/10 10:06:10;;;;;;;28.80;17.60;;;4.40;99.90;;;;;;6246066;23;20412;-71
2020/12/10 10:08:35;;;;;;;26.10;14.57;;;4.30;99.90;;;;;;6246334;23;20149;-70
2020/12/10 10:11:01;;;;;;;28.37;16.53;;;4.30;99.90;;;;;;6256330;23;20515;-70
2020/12/10 10:13:26;;;;;;;30.37;16.47;;;4.30;99.90;;;;;;6246472;23;20157;-75
2020/12/10 10:15:52;;;;;;;33.63;16.33;;;4.20;99.90;;;;;;6246045;23;20222;-76
2020/12/10 10:21:39;;;;;;;25.30;14.90;;;4.20;99.90;;;;;;6256446;23;20143;-76
2020/12/10 10:27:27;;;;;;;30.80;16.43;;;4.10;99.90;;;;;;6256386;23;20575;-76
2020/12/10 10:29:52;;;;;;;23.60;13.97;;;4.10;99.90;;;;;;6245961;23;20405;-76
2020/12/10 10:32:18;;;;;;;25.87;14.63;;;4.20;99.90;;;;;;6245922;23;20151;-76
2020/12/10 10:34:43;;;;;;;30.43;15.77;;;4.10;99.90;;;;;;6245988;23;20196;-76
2020/12/10 10:37:09;;;;;;;28.10;14.60;;;4.10;99.90;;;;;;6246400;23;20151;-73
2020/12/10 10:39:34;;;;;;;25.17;14.17;;;4.10;99.90;;;;;;6246383;23;20162;-72
2020/12/10 10:42:00;;;;;;;25.90;15.27;;;4.10;99.90;;;;;;6246190;23;20584;-75
2020/12/10 10:47:47;;;;;;;25.07;13.33;;;4.00;99.90;;;;;;6257242;23;20151;-75
2020/12/10 10:50:13;;;;;;;27.20;13.97;;;4.10;99.90;;;;;;6248294;23;20421;-76
2020/12/10 10:52:41;;;;;;;27.60;14.47;;;4.10;99.90;;;;;;6247971;23;20160;-75
2020/12/10 10:58:29;;;;;;;28.07;15.00;;;4.20;99.90;;;;;;6258525;23;20431;-75
2020/12/10 11:00:54;;;;;;;29.80;15.17;;;4.20;99.90;;;;;;6248126;23;20381;-75
2020/12/10 11:06:41;;;;;;;26.50;14.20;;;4.30;99.90;;;;;;6257958;23;20164;-83
2020/12/10 11:12:29;;;;;;;29.53;13.70;;;4.50;99.90;;;;;;6258105;23;20559;-74
2020/12/10 11:14:54;;;;;;;29.10;15.67;;;4.60;99.90;;;;;;6248073;23;20479;-75
2020/12/10 11:20:42;;;;;;;26.60;16.20;;;4.80;99.90;;;;;;6258025;23;20239;-75
2020/12/10 11:23:07;;;;;;;27.90;14.60;;;4.80;99.90;;;;;;6247927;23;20900;-74
2020/12/10 11:25:33;;;;;;;27.03;16.03;;;5.00;99.90;;;;;;6248079;23;20156;-76
2020/12/10 11:27:59;;;;;;;23.57;13.10;;;5.20;99.90;;;;;;6247982;23;20158;-76
2020/12/10 11:33:46;;;;;;;25.07;13.80;;;5.50;99.90;;;;;;6257939;22;20147;-75
2020/12/10 11:36:12;;;;;;;21.00;13.27;;;5.80;99.90;;;;;;6247539;23;20389;-75
2020/12/10 11:38:37;;;;;;;24.30;12.43;;;6.00;99.90;;;;;;6247504;23;20157;-75
2020/12/10 11:41:03;;;;;;;20.27;11.93;;;6.10;99.90;;;;;;6247397;23;20172;-77
2020/12/10 11:43:28;;;;;;;23.33;12.47;;;6.40;99.90;;;;;;6257592;23;20174;-76
2020/12/10 11:45:54;;;;;;;23.30;11.73;;;6.60;99.90;;;;;;6247691;23;20150;-79
2020/12/10 11:48:20;;;;;;;19.60;11.77;;;6.90;99.90;;;;;;6247415;23;20161;-79
2020/12/10 11:50:46;;;;;;;22.83;13.00;;;7.10;99.90;;;;;;6257557;23;20228;-80
2020/12/10 11:53:12;;;;;;;26.53;12.90;;;7.10;99.90;;;;;;6247439;23;20539;-80
2020/12/10 11:55:38;;;;;;;21.13;11.00;;;7.20;99.90;;;;;;6247671;23;20382;-78
2020/12/10 11:58:04;;;;;;;24.13;15.10;;;7.20;99.90;;;;;;6247307;23;20802;-78
2020/12/10 12:00:30;;;;;;;20.40;13.00;;;7.10;99.90;;;;;;6247411;23;20153;-78
2020/12/10 12:02:56;;;;;;;17.70;10.60;;;7.00;99.90;;;;;;6247625;23;20176;-78
2020/12/10 12:05:22;;;;;;;18.50;12.13;;;6.90;99.90;;;;;;6247657;23;20744;-78
2020/12/10 12:07:48;;;;;;;21.67;12.67;;;6.70;99.90;;;;;;6247642;23;20154;-76
2020/12/10 12:13:35;;;;;;;15.80;10.90;;;6.60;99.90;;;;;;6257560;23;20145;-76
2020/12/10 12:16:01;;;;;;;19.83;12.70;;;6.50;99.90;;;;;;6247521;23;20471;-72
2020/12/10 12:18:28;;;;;;;20.70;12.57;;;6.40;99.90;;;;;;6247460;23;20154;-77
2020/12/10 12:24:15;;;;;;;22.47;11.93;;;6.50;99.90;;;;;;6257287;23;20380;-79
2020/12/10 12:26:41;;;;;;;20.50;12.80;;;6.50;99.90;;;;;;6247388;23;20414;-74
2020/12/10 12:32:28;;;;;;;14.40;10.30;;;6.50;99.90;;;;;;6257158;23;20284;-74
2020/12/10 12:34:54;;;;;;;19.57;12.57;;;6.60;99.90;;;;;;6256887;23;20431;-74
2020/12/10 12:37:19;;;;;;;20.90;12.67;;;6.60;99.90;;;;;;6247232;23;20162;-74
2020/12/10 12:39:45;;;;;;;22.50;12.40;;;6.60;99.90;;;;;;6247366;23;20173;-74
2020/12/10 12:42:10;;;;;;;17.63;11.10;;;6.70;99.90;;;;;;6247317;23;20567;-74
2020/12/10 12:47:59;;;;;;;22.23;14.45;;;6.80;99.90;;;;;;6255710;23;20469;-81
2020/12/10 12:50:25;;;;;;;19.67;12.33;;;6.80;99.90;;;;;;6246626;23;20210;-83
2020/12/10 12:52:50;;;;;;;19.97;12.67;;;6.80;99.90;;;;;;6256848;23;20395;-79
2020/12/10 12:55:16;;;;;;;16.93;10.83;;;6.80;99.90;;;;;;6247058;23;20165;-80
2020/12/10 12:57:42;;;;;;;20.90;11.60;;;6.70;99.90;;;;;;6246660;23;20219;-77
2020/12/10 13:00:07;;;;;;;16.30;10.97;;;6.50;99.90;;;;;;6247074;23;20168;-77
2020/12/10 13:02:34;;;;;;;16.30;10.40;;;6.40;99.90;;;;;;6246887;23;20558;-73
2020/12/10 13:08:28;;;;;;;21.80;12.27;;;6.30;99.90;;;;;;6257355;23;20430;-72
2020/12/10 13:14:16;;;;;;;18.93;10.90;;;6.20;99.90;;;;;;6256879;23;20381;-72
2020/12/10 13:16:42;;;;;;;18.73;11.47;;;6.10;99.90;;;;;;6247483;23;20381;-72
2020/12/10 13:19:09;;;;;;;18.97;11.43;;;6.10;99.90;;;;;;6246502;23;20587;-72
2020/12/10 13:24:57;;;;;;;18.07;11.10;;;6.10;99.90;;;;;;6256783;23;20413;-72
2020/12/10 13:27:22;;;;;;;17.00;10.40;;;6.20;99.90;;;;;;6246257;23;20388;-72
2020/12/10 13:29:48;;;;;;;19.00;11.67;;;6.20;99.90;;;;;;6246327;23;20158;-72
2020/12/10 13:32:13;;;;;;;18.93;11.73;;;6.30;99.90;;;;;;6246340;23;20149;-72
2020/12/10 13:34:39;;;;;;;19.20;11.13;;;6.60;99.90;;;;;;6246248;23;20193;-72
2020/12/10 13:37:04;;;;;;;21.63;11.17;;;6.50;99.90;;;;;;6246511;23;20148;-73
2020/12/10 13:39:30;;;;;;;19.63;13.40;;;6.50;99.90;;;;;;6246650;23;20245;-80
2020/12/10 13:41:56;;;;;;;21.90;13.30;;;6.30;99.90;;;;;;6246105;23;20146;-77
2020/12/10 13:44:22;;;;;;;15.40;11.47;;;6.30;99.90;;;;;;6246288;23;20477;-77
2020/12/10 13:50:09;;;;;;;18.63;12.03;;;6.20;99.90;;;;;;6256420;23;20216;-76
2020/12/10 13:55:57;;;;;;;21.00;12.93;;;6.00;99.90;;;;;;6256570;23;20379;-76
2020/12/10 13:58:22;;;;;;;22.97;12.10;;;6.00;99.90;;;;;;6246568;23;20475;-73
2020/12/10 14:04:11;;;;;;;22.40;10.50;;;5.90;99.90;;;;;;6256476;23;20145;-71
2020/12/10 14:06:37;;;;;;;17.63;10.93;;;5.80;99.90;;;;;;6246417;23;20434;-71
2020/12/10 14:09:03;;;;;;;18.80;11.87;;;5.70;99.90;;;;;;6246371;23;20706;-71
2020/12/10 14:11:28;;;;;;;19.13;11.43;;;5.60;99.90;;;;;;6246331;23;20458;-72
2020/12/10 14:17:16;;;;;;;18.07;10.40;;;5.50;99.90;;;;;;6256324;23;20159;-75
2020/12/10 14:23:04;;;;;;;19.73;10.60;;;5.30;99.90;;;;;;6256614;23;20592;-74
2020/12/10 14:25:29;;;;;;;12.80;8.73;;;5.30;99.90;;;;;;6246314;23;20483;-72
2020/12/10 14:31:17;;;;;;;13.50;10.27;;;5.20;99.90;;;;;;6256444;23;20817;-75
2020/12/10 14:37:24;;;;;;;19.50;10.10;;;5.10;99.90;;;;;;6255241;23;20201;-79
2020/12/10 14:43:12;;;;;;;17.30;10.77;;;5.00;99.90;;;;;;6256543;23;20155;-79
2020/12/10 14:45:37;;;;;;;17.80;11.00;;;5.00;99.90;;;;;;6256848;23;20460;-79
2020/12/10 14:48:03;;;;;;;15.30;10.60;;;5.00;99.90;;;;;;6219562;23;20601;-78
2020/12/10 14:50:29;;;;;;;12.80;9.70;;;5.00;99.90;;;;;;6246600;23;20214;-80
2020/12/10 14:56:23;;;;;;;15.73;9.40;;;4.90;99.90;;;;;;6256277;23;20176;-78
2020/12/10 14:58:50;;;;;;;18.90;10.13;;;4.80;99.90;;;;;;6246645;23;20375;-78
2020/12/10 15:01:26;;;;;;;15.43;11.07;;;4.70;99.90;;;;;;6256030;23;20475;-78
2020/12/10 15:03:51;;;;;;;17.50;10.10;;;4.70;99.90;;;;;;6246497;23;20667;-78
2020/12/10 15:06:17;;;;;;;18.53;10.53;;;4.70;99.90;;;;;;6245860;23;20555;-78
2020/12/10 15:08:44;;;;;;;19.30;12.80;;;4.70;99.90;;;;;;6246432;23;20177;-78
2020/12/10 15:11:18;;;;;;;15.47;10.10;;;4.60;99.90;;;;;;6246275;23;20185;-77
2020/12/10 15:17:05;;;;;;;18.30;11.70;;;4.70;99.90;;;;;;6256248;23;20420;-75
2020/12/10 15:19:32;;;;;;;15.77;9.80;;;4.60;99.90;;;;;;6246239;23;20426;-75
2020/12/10 15:21:57;;;;;;;17.93;11.60;;;4.60;99.90;;;;;;6246233;23;20459;-75
2020/12/10 15:24:24;;;;;;;24.10;11.63;;;4.50;99.90;;;;;;6246129;23;20384;-75
2020/12/10 15:26:49;;;;;;;19.93;12.63;;;4.40;99.90;;;;;;6246126;23;20562;-75
2020/12/10 15:29:15;;;;;;;26.83;15.07;;;4.40;99.90;;;;;;6255921;23;20387;-75
2020/12/10 15:31:42;;;;;;;23.10;14.83;;;4.30;99.90;;;;;;6245994;23;20185;-75
2020/12/10 15:34:08;;;;;;;24.00;13.90;;;4.20;99.90;;;;;;6246122;23;20161;-75
2020/12/10 15:36:33;;;;;;;19.03;12.40;;;4.30;99.90;;;;;;6247488;23;20432;-75
2020/12/10 15:38:59;;;;;;;22.43;14.17;;;4.30;99.90;;;;;;6258160;23;20735;-75
2020/12/10 15:41:24;;;;;;;18.70;12.60;;;4.10;99.90;;;;;;6248275;23;20156;-75
2020/12/10 15:43:50;;;;;;;19.50;13.13;;;4.10;99.90;;;;;;6247884;23;20528;-75
2020/12/10 15:46:15;;;;;;;20.13;11.70;;;4.10;99.90;;;;;;6257778;23;20615;-75
2020/12/10 15:48:41;;;;;;;25.37;15.30;;;4.20;99.90;;;;;;6257870;23;20143;-76
2020/12/10 15:55:44;;;;;;;25.00;14.27;;;4.60;99.90;;;;;;5090876;27;21089;-76
2020/12/10 15:58:11;;;;;;;21.47;14.07;;;4.90;99.90;;;;;;5090673;28;20433;-75
2020/12/10 16:00:36;;;;;;;22.10;13.60;;;4.80;99.90;;;;;;5090427;28;20190;-75
2020/12/10 16:03:02;;;;;;;22.00;12.77;;;4.80;99.90;;;;;;5090633;28;20885;-75
2020/12/10 16:05:28;;;;;;;20.10;13.43;;;4.80;99.90;;;;;;5089865;28;20900;-77
2020/12/10 16:07:53;;;;;;;21.63;13.53;;;4.70;99.90;;;;;;5090393;28;20187;-76
2020/12/10 16:10:19;;;;;;;21.13;12.93;;;4.60;99.90;;;;;;5090445;28;20180;-81
2020/12/10 16:12:44;;;;;;;22.23;12.70;;;4.60;99.90;;;;;;5090120;28;20188;-75
2020/12/10 16:15:12;;;;;;;24.27;14.10;;;4.60;99.90;;;;;;5090244;28;20211;-73
2020/12/10 16:17:37;;;;;;;21.37;14.33;;;4.50;99.90;;;;;;5090322;28;20590;-79
2020/12/10 16:20:03;;;;;;;22.60;14.60;;;4.40;99.90;;;;;;5089860;28;20462;-77
2020/12/10 16:22:28;;;;;;;23.83;15.20;;;4.40;99.90;;;;;;5089199;28;20260;-77
2020/12/10 16:24:54;;;;;;;23.33;13.77;;;4.40;99.90;;;;;;5089731;28;20201;-77
2020/12/10 16:27:19;;;;;;;25.87;16.63;;;4.40;99.90;;;;;;5089718;28;20189;-77
2020/12/10 16:29:45;;;;;;;21.83;15.60;;;4.40;99.90;;;;;;5089873;28;20179;-76
2020/12/10 16:32:11;;;;;;;22.90;14.90;;;4.40;99.90;;;;;;5090051;28;20167;-77
2020/12/10 16:34:37;;;;;;;19.13;13.27;;;4.40;99.90;;;;;;5090083;28;20213;-77
2020/12/10 16:37:03;;;;;;;20.37;13.53;;;4.40;99.90;;;;;;5089855;28;20187;-77
2020/12/10 16:39:29;;;;;;;20.20;13.47;;;4.40;99.90;;;;;;5089766;28;20516;-76
2020/12/10 16:41:56;;;;;;;27.20;14.43;;;4.40;99.90;;;;;;5089408;28;20286;-74
2020/12/10 16:44:22;;;;;;;23.17;14.90;;;4.40;99.90;;;;;;5089381;28;20528;-76
2020/12/10 16:46:50;;;;;;;22.50;14.30;;;4.40;99.90;;;;;;5089501;28;20513;-77
2020/12/10 16:49:17;;;;;;;20.27;12.33;;;4.40;99.90;;;;;;5088758;28;20178;-77
2020/12/10 16:51:43;;;;;;;24.03;14.00;;;4.40;99.90;;;;;;5088074;28;20445;-77